EGPI/ILY METAR and TAF weather

Enter ICAO airport designator
Station Type Date Time Source
EGPI METAR 2022/11/30 11:20 UTC NOAA

EGPI 301120Z 16018KT 9999 FEW009 10/08 Q1021


Station Type Date Time Source
EGPI Decoded METAR 2022/11/30 11:20 UTC NOAA

Islay, United Kingdom (EGPI) 55-40-55N 006-15-24W
Nov 30, 2022 - 06:20 AM EST / 2022.11.30 1120 UTC
Wind: from the SSE (160 degrees) at 21 MPH (18 KT):0
Visibility: greater than 7 mile(s):0
Sky conditions: mostly clear
Temperature: 50 F (10 C)
Dew Point: 46 F (8 C)
Relative Humidity: 87%
Pressure (altimeter): 30.15 in. Hg (1021 hPa)
ob: EGPI 301120Z 16018KT 9999 FEW009 10/08 Q1021
cycle: 11

Station Type Date Time Source
EGPI TAF UTC NOAA

Error!

Example: see airport list